Terminal Aerodrome Forecast
Issued by NWS Tiyan, Guam

Home | Current Version | Previous Version | Text Only | Print | Product List | Glossary On
Versions: 1 2 3 4 5 6 7 8 9 10 11 12 13 14 15 16 17 18
000
FTPQ31 PGUM 181728
TAFGUM
TAF
PGUM 181728Z 1818/1924 28011KT P6SM VCSH FEW015 SCT030 BKN100
      WS020/25035KT
     FM190100 28015G22KT P6SM VCSH SCT015 SCT030 BKN120=

USA.gov is the U.S. government's official web portal to all federal, state and local government web resources and services.